sensor_id;sensor_type;location;lat;lon;timestamp;P1;durP1;ratioP1;P2;durP2;ratioP2
73729;SDS011;62036;48.128;16.458;2022-11-18T00:01:05;17.00;;;9.32;;
73729;SDS011;62036;48.128;16.458;2022-11-18T00:03:31;16.23;;;9.90;;
73729;SDS011;62036;48.128;16.458;2022-11-18T00:05:57;17.75;;;10.70;;
73729;SDS011;62036;48.128;16.458;2022-11-18T00:08:26;17.23;;;9.82;;
73729;SDS011;62036;48.128;16.458;2022-11-18T00:10:55;18.38;;;10.52;;
73729;SDS011;62036;48.128;16.458;2022-11-18T00:13:21;15.15;;;9.63;;
73729;SDS011;62036;48.128;16.458;2022-11-18T00:18:32;18.55;;;9.80;;
73729;SDS011;62036;48.128;16.458;2022-11-18T00:21:04;16.98;;;9.82;;
73729;SDS011;62036;48.128;16.458;2022-11-18T00:23:31;20.20;;;10.57;;
73729;SDS011;62036;48.128;16.458;2022-11-18T00:26:03;20.02;;;10.68;;
73729;SDS011;62036;48.128;16.458;2022-11-18T00:28:30;17.23;;;10.00;;
73729;SDS011;62036;48.128;16.458;2022-11-18T00:31:03;19.77;;;9.40;;
73729;SDS011;62036;48.128;16.458;2022-11-18T00:33:30;21.05;;;10.70;;
73729;SDS011;62036;48.128;16.458;2022-11-18T00:35:56;17.95;;;9.60;;
73729;SDS011;62036;48.128;16.458;2022-11-18T00:38:23;17.92;;;10.02;;
73729;SDS011;62036;48.128;16.458;2022-11-18T00:40:57;16.40;;;10.07;;
73729;SDS011;62036;48.128;16.458;2022-11-18T00:43:23;18.02;;;10.63;;
73729;SDS011;62036;48.128;16.458;2022-11-18T00:45:49;17.20;;;9.57;;
73729;SDS011;62036;48.128;16.458;2022-11-18T00:48:15;19.23;;;10.93;;
73729;SDS011;62036;48.128;16.458;2022-11-18T00:50:45;15.95;;;10.15;;
73729;SDS011;62036;48.128;16.458;2022-11-18T00:53:11;18.42;;;9.43;;
73729;SDS011;62036;48.128;16.458;2022-11-18T00:55:37;19.20;;;10.38;;
73729;SDS011;62036;48.128;16.458;2022-11-18T00:58:03;15.82;;;10.32;;
73729;SDS011;62036;48.128;16.458;2022-11-18T01:00:29;18.90;;;11.00;;
73729;SDS011;62036;48.128;16.458;2022-11-18T01:02:55;18.38;;;10.40;;
73729;SDS011;62036;48.128;16.458;2022-11-18T01:05:21;16.88;;;9.77;;
73729;SDS011;62036;48.128;16.458;2022-11-18T01:07:47;17.35;;;10.27;;
73729;SDS011;62036;48.128;16.458;2022-11-18T01:10:13;18.27;;;10.20;;
73729;SDS011;62036;48.128;16.458;2022-11-18T01:12:39;17.52;;;10.73;;
73729;SDS011;62036;48.128;16.458;2022-11-18T01:15:23;19.70;;;10.73;;
73729;SDS011;62036;48.128;16.458;2022-11-18T01:17:49;23.45;;;10.35;;
73729;SDS011;62036;48.128;16.458;2022-11-18T01:20:15;19.05;;;10.45;;
73729;SDS011;62036;48.128;16.458;2022-11-18T01:22:41;18.17;;;9.80;;
73729;SDS011;62036;48.128;16.458;2022-11-18T01:25:07;19.67;;;10.60;;
73729;SDS011;62036;48.128;16.458;2022-11-18T01:27:34;21.80;;;11.20;;
73729;SDS011;62036;48.128;16.458;2022-11-18T01:30:00;19.17;;;10.63;;
73729;SDS011;62036;48.128;16.458;2022-11-18T01:32:26;21.33;;;11.15;;
73729;SDS011;62036;48.128;16.458;2022-11-18T01:34:52;19.63;;;10.30;;
73729;SDS011;62036;48.128;16.458;2022-11-18T01:37:18;19.65;;;10.82;;
73729;SDS011;62036;48.128;16.458;2022-11-18T01:39:44;17.65;;;10.40;;
73729;SDS011;62036;48.128;16.458;2022-11-18T01:42:14;20.00;;;10.38;;
73729;SDS011;62036;48.128;16.458;2022-11-18T01:45:42;20.65;;;10.55;;
73729;SDS011;62036;48.128;16.458;2022-11-18T01:47:42;19.08;;;10.30;;
73729;SDS011;62036;48.128;16.458;2022-11-18T01:50:09;25.42;;;10.80;;
73729;SDS011;62036;48.128;16.458;2022-11-18T01:52:37;21.23;;;11.80;;
73729;SDS011;62036;48.128;16.458;2022-11-18T01:55:11;25.08;;;11.70;;
73729;SDS011;62036;48.128;16.458;2022-11-18T01:57:39;26.27;;;11.68;;
73729;SDS011;62036;48.128;16.458;2022-11-18T02:00:06;19.35;;;10.50;;
73729;SDS011;62036;48.128;16.458;2022-11-18T02:02:33;21.23;;;10.55;;
73729;SDS011;62036;48.128;16.458;2022-11-18T02:05:00;25.85;;;10.40;;
73729;SDS011;62036;48.128;16.458;2022-11-18T02:07:27;20.77;;;10.75;;
73729;SDS011;62036;48.128;16.458;2022-11-18T02:09:53;21.38;;;10.48;;
73729;SDS011;62036;48.128;16.458;2022-11-18T02:12:20;20.38;;;10.73;;
73729;SDS011;62036;48.128;16.458;2022-11-18T02:14:47;20.58;;;10.63;;
73729;SDS011;62036;48.128;16.458;2022-11-18T02:17:31;22.88;;;11.38;;
73729;SDS011;62036;48.128;16.458;2022-11-18T02:36:14;17.23;;;9.90;;
73729;SDS011;62036;48.128;16.458;2022-11-18T02:38:42;23.80;;;11.07;;
73729;SDS011;62036;48.128;16.458;2022-11-18T02:41:12;23.02;;;11.60;;
73729;SDS011;62036;48.128;16.458;2022-11-18T02:43:40;22.80;;;11.18;;
73729;SDS011;62036;48.128;16.458;2022-11-18T02:46:09;21.92;;;9.88;;
73729;SDS011;62036;48.128;16.458;2022-11-18T02:48:37;27.95;;;12.15;;
73729;SDS011;62036;48.128;16.458;2022-11-18T02:51:04;24.52;;;11.43;;
73729;SDS011;62036;48.128;16.458;2022-11-18T02:53:32;25.23;;;11.75;;
73729;SDS011;62036;48.128;16.458;2022-11-18T02:55:58;22.02;;;11.43;;
73729;SDS011;62036;48.128;16.458;2022-11-18T02:58:25;25.17;;;11.20;;
73729;SDS011;62036;48.128;16.458;2022-11-18T03:00:52;20.70;;;10.90;;
73729;SDS011;62036;48.128;16.458;2022-11-18T03:08:23;23.90;;;11.73;;
73729;SDS011;62036;48.128;16.458;2022-11-18T03:10:58;24.52;;;11.65;;
73729;SDS011;62036;48.128;16.458;2022-11-18T03:13:26;29.48;;;12.10;;
73729;SDS011;62036;48.128;16.458;2022-11-18T03:15:59;23.10;;;10.88;;
73729;SDS011;62036;48.128;16.458;2022-11-18T03:18:38;28.75;;;12.07;;
73729;SDS011;62036;48.128;16.458;2022-11-18T03:21:08;30.10;;;12.45;;
73729;SDS011;62036;48.128;16.458;2022-11-18T03:23:43;26.30;;;12.95;;
73729;SDS011;62036;48.128;16.458;2022-11-18T03:26:13;29.10;;;12.63;;
73729;SDS011;62036;48.128;16.458;2022-11-18T03:28:44;28.23;;;11.85;;
73729;SDS011;62036;48.128;16.458;2022-11-18T03:36:11;24.63;;;11.43;;
73729;SDS011;62036;48.128;16.458;2022-11-18T03:38:40;28.50;;;12.50;;
73729;SDS011;62036;48.128;16.458;2022-11-18T03:41:08;29.73;;;11.93;;
73729;SDS011;62036;48.128;16.458;2022-11-18T03:43:39;30.92;;;12.55;;
73729;SDS011;62036;48.128;16.458;2022-11-18T03:46:10;27.70;;;12.88;;
73729;SDS011;62036;48.128;16.458;2022-11-18T03:48:51;27.95;;;12.32;;
73729;SDS011;62036;48.128;16.458;2022-11-18T03:51:20;27.13;;;12.55;;
73729;SDS011;62036;48.128;16.458;2022-11-18T03:53:51;27.85;;;13.00;;
73729;SDS011;62036;48.128;16.458;2022-11-18T03:56:21;29.20;;;12.65;;
73729;SDS011;62036;48.128;16.458;2022-11-18T03:58:53;23.40;;;11.52;;
73729;SDS011;62036;48.128;16.458;2022-11-18T04:01:24;29.98;;;12.90;;
73729;SDS011;62036;48.128;16.458;2022-11-18T04:03:51;26.02;;;12.55;;
73729;SDS011;62036;48.128;16.458;2022-11-18T04:08:44;23.13;;;11.70;;
73729;SDS011;62036;48.128;16.458;2022-11-18T04:11:15;27.48;;;12.02;;
73729;SDS011;62036;48.128;16.458;2022-11-18T04:14:03;27.38;;;12.80;;
73729;SDS011;62036;48.128;16.458;2022-11-18T04:16:29;26.23;;;12.48;;
73729;SDS011;62036;48.128;16.458;2022-11-18T04:18:55;28.33;;;11.75;;
73729;SDS011;62036;48.128;16.458;2022-11-18T04:21:21;26.55;;;11.32;;
73729;SDS011;62036;48.128;16.458;2022-11-18T04:23:47;25.70;;;10.73;;
73729;SDS011;62036;48.128;16.458;2022-11-18T04:26:13;28.58;;;12.35;;
73729;SDS011;62036;48.128;16.458;2022-11-18T04:28:41;25.08;;;12.07;;
73729;SDS011;62036;48.128;16.458;2022-11-18T04:31:07;23.92;;;11.95;;
73729;SDS011;62036;48.128;16.458;2022-11-18T04:33:33;23.50;;;11.73;;
73729;SDS011;62036;48.128;16.458;2022-11-18T04:35:59;25.02;;;11.65;;
73729;SDS011;62036;48.128;16.458;2022-11-18T04:38:25;24.27;;;11.13;;
73729;SDS011;62036;48.128;16.458;2022-11-18T04:40:51;24.02;;;11.50;;
73729;SDS011;62036;48.128;16.458;2022-11-18T04:43:17;24.50;;;10.70;;
73729;SDS011;62036;48.128;16.458;2022-11-18T04:45:43;25.58;;;12.38;;
73729;SDS011;62036;48.128;16.458;2022-11-18T04:48:09;27.27;;;12.60;;
73729;SDS011;62036;48.128;16.458;2022-11-18T04:50:35;28.55;;;12.57;;
73729;SDS011;62036;48.128;16.458;2022-11-18T04:53:01;25.63;;;11.82;;
73729;SDS011;62036;48.128;16.458;2022-11-18T04:55:27;24.83;;;11.93;;
73729;SDS011;62036;48.128;16.458;2022-11-18T04:57:53;25.10;;;11.60;;
73729;SDS011;62036;48.128;16.458;2022-11-18T05:00:19;29.35;;;13.63;;
73729;SDS011;62036;48.128;16.458;2022-11-18T05:02:47;27.48;;;12.68;;
73729;SDS011;62036;48.128;16.458;2022-11-18T05:05:13;31.02;;;13.38;;
73729;SDS011;62036;48.128;16.458;2022-11-18T05:07:39;27.73;;;12.40;;
73729;SDS011;62036;48.128;16.458;2022-11-18T05:10:05;24.60;;;11.50;;
73729;SDS011;62036;48.128;16.458;2022-11-18T05:12:31;26.70;;;11.32;;
73729;SDS011;62036;48.128;16.458;2022-11-18T05:15:17;28.42;;;12.15;;
73729;SDS011;62036;48.128;16.458;2022-11-18T05:17:43;27.27;;;11.02;;
73729;SDS011;62036;48.128;16.458;2022-11-18T05:20:09;22.10;;;11.18;;
73729;SDS011;62036;48.128;16.458;2022-11-18T05:22:36;29.50;;;11.77;;
73729;SDS011;62036;48.128;16.458;2022-11-18T05:25:03;26.55;;;11.57;;
73729;SDS011;62036;48.128;16.458;2022-11-18T05:27:29;27.70;;;11.82;;
73729;SDS011;62036;48.128;16.458;2022-11-18T05:29:55;28.00;;;12.50;;
73729;SDS011;62036;48.128;16.458;2022-11-18T05:32:24;29.70;;;12.70;;
73729;SDS011;62036;48.128;16.458;2022-11-18T05:34:50;29.23;;;12.05;;
73729;SDS011;62036;48.128;16.458;2022-11-18T05:37:16;29.30;;;13.05;;
73729;SDS011;62036;48.128;16.458;2022-11-18T05:39:42;25.92;;;11.80;;
73729;SDS011;62036;48.128;16.458;2022-11-18T05:42:08;24.27;;;11.63;;
73729;SDS011;62036;48.128;16.458;2022-11-18T05:44:53;29.42;;;11.73;;
73729;SDS011;62036;48.128;16.458;2022-11-18T05:47:19;26.90;;;12.07;;
73729;SDS011;62036;48.128;16.458;2022-11-18T05:49:45;26.00;;;11.57;;
73729;SDS011;62036;48.128;16.458;2022-11-18T05:52:11;25.52;;;10.95;;
73729;SDS011;62036;48.128;16.458;2022-11-18T05:54:38;30.67;;;11.68;;
73729;SDS011;62036;48.128;16.458;2022-11-18T05:57:04;31.45;;;11.95;;
73729;SDS011;62036;48.128;16.458;2022-11-18T05:59:30;27.98;;;11.88;;
73729;SDS011;62036;48.128;16.458;2022-11-18T06:04:24;26.55;;;11.30;;
73729;SDS011;62036;48.128;16.458;2022-11-18T06:06:51;27.88;;;12.50;;
73729;SDS011;62036;48.128;16.458;2022-11-18T06:09:20;26.98;;;11.07;;
73729;SDS011;62036;48.128;16.458;2022-11-18T06:11:48;26.48;;;11.68;;
73729;SDS011;62036;48.128;16.458;2022-11-18T06:14:36;33.65;;;11.82;;
73729;SDS011;62036;48.128;16.458;2022-11-18T06:17:04;24.65;;;10.45;;
73729;SDS011;62036;48.128;16.458;2022-11-18T06:19:31;29.23;;;11.77;;
73729;SDS011;62036;48.128;16.458;2022-11-18T06:21:57;33.35;;;12.43;;
73729;SDS011;62036;48.128;16.458;2022-11-18T06:24:23;35.17;;;13.23;;
73729;SDS011;62036;48.128;16.458;2022-11-18T06:26:50;35.90;;;12.82;;
73729;SDS011;62036;48.128;16.458;2022-11-18T06:29:16;31.70;;;12.70;;
73729;SDS011;62036;48.128;16.458;2022-11-18T06:31:43;33.20;;;11.57;;
73729;SDS011;62036;48.128;16.458;2022-11-18T06:34:09;29.25;;;12.43;;
73729;SDS011;62036;48.128;16.458;2022-11-18T06:36:35;34.33;;;13.32;;
73729;SDS011;62036;48.128;16.458;2022-11-18T06:39:02;30.67;;;12.18;;
73729;SDS011;62036;48.128;16.458;2022-11-18T06:41:29;34.58;;;12.30;;
73729;SDS011;62036;48.128;16.458;2022-11-18T06:43:55;31.75;;;12.27;;
73729;SDS011;62036;48.128;16.458;2022-11-18T06:46:21;28.70;;;11.60;;
73729;SDS011;62036;48.128;16.458;2022-11-18T06:51:31;30.95;;;10.40;;
73729;SDS011;62036;48.128;16.458;2022-11-18T06:53:57;28.98;;;11.60;;
73729;SDS011;62036;48.128;16.458;2022-11-18T06:56:23;26.27;;;10.27;;
73729;SDS011;62036;48.128;16.458;2022-11-18T06:58:53;31.33;;;11.52;;
73729;SDS011;62036;48.128;16.458;2022-11-18T07:01:21;32.03;;;11.05;;
73729;SDS011;62036;48.128;16.458;2022-11-18T07:03:47;29.33;;;10.88;;
73729;SDS011;62036;48.128;16.458;2022-11-18T07:06:14;26.50;;;9.90;;
73729;SDS011;62036;48.128;16.458;2022-11-18T07:08:41;31.15;;;12.07;;
73729;SDS011;62036;48.128;16.458;2022-11-18T07:11:09;32.38;;;11.18;;
73729;SDS011;62036;48.128;16.458;2022-11-18T07:13:35;28.83;;;11.50;;
73729;SDS011;62036;48.128;16.458;2022-11-18T07:16:05;31.38;;;10.57;;
73729;SDS011;62036;48.128;16.458;2022-11-18T07:18:32;28.38;;;10.75;;
73729;SDS011;62036;48.128;16.458;2022-11-18T07:21:02;29.25;;;11.23;;
73729;SDS011;62036;48.128;16.458;2022-11-18T07:23:29;31.58;;;11.73;;
73729;SDS011;62036;48.128;16.458;2022-11-18T07:25:55;34.22;;;11.05;;
73729;SDS011;62036;48.128;16.458;2022-11-18T07:28:21;28.13;;;10.10;;
73729;SDS011;62036;48.128;16.458;2022-11-18T07:30:48;29.25;;;10.93;;
73729;SDS011;62036;48.128;16.458;2022-11-18T07:33:14;28.17;;;9.75;;
73729;SDS011;62036;48.128;16.458;2022-11-18T07:35:40;27.05;;;10.30;;
73729;SDS011;62036;48.128;16.458;2022-11-18T07:38:06;32.90;;;11.82;;
73729;SDS011;62036;48.128;16.458;2022-11-18T07:40:32;27.98;;;10.13;;
73729;SDS011;62036;48.128;16.458;2022-11-18T07:42:58;24.92;;;10.52;;
73729;SDS011;62036;48.128;16.458;2022-11-18T07:45:24;30.92;;;11.02;;
73729;SDS011;62036;48.128;16.458;2022-11-18T07:47:50;33.33;;;10.55;;
73729;SDS011;62036;48.128;16.458;2022-11-18T07:50:16;26.38;;;10.73;;
73729;SDS011;62036;48.128;16.458;2022-11-18T07:52:43;29.60;;;11.75;;
73729;SDS011;62036;48.128;16.458;2022-11-18T07:55:09;24.58;;;10.18;;
73729;SDS011;62036;48.128;16.458;2022-11-18T07:57:35;27.90;;;10.77;;
73729;SDS011;62036;48.128;16.458;2022-11-18T08:00:01;28.65;;;10.88;;
73729;SDS011;62036;48.128;16.458;2022-11-18T08:02:28;29.83;;;10.80;;
73729;SDS011;62036;48.128;16.458;2022-11-18T08:04:54;26.77;;;10.73;;
73729;SDS011;62036;48.128;16.458;2022-11-18T08:07:20;27.67;;;10.70;;
73729;SDS011;62036;48.128;16.458;2022-11-18T08:09:46;28.85;;;10.95;;
73729;SDS011;62036;48.128;16.458;2022-11-18T08:12:12;28.98;;;10.52;;
73729;SDS011;62036;48.128;16.458;2022-11-18T08:14:38;25.38;;;10.48;;
73729;SDS011;62036;48.128;16.458;2022-11-18T08:17:04;26.83;;;9.95;;
73729;SDS011;62036;48.128;16.458;2022-11-18T08:19:32;25.17;;;9.48;;
73729;SDS011;62036;48.128;16.458;2022-11-18T08:21:59;28.50;;;10.27;;
73729;SDS011;62036;48.128;16.458;2022-11-18T08:24:25;25.83;;;10.18;;
73729;SDS011;62036;48.128;16.458;2022-11-18T08:26:51;24.30;;;9.70;;
73729;SDS011;62036;48.128;16.458;2022-11-18T08:29:17;21.77;;;9.43;;
73729;SDS011;62036;48.128;16.458;2022-11-18T08:31:43;22.20;;;9.00;;
73729;SDS011;62036;48.128;16.458;2022-11-18T08:34:09;21.58;;;9.90;;
73729;SDS011;62036;48.128;16.458;2022-11-18T08:36:36;25.55;;;10.27;;
73729;SDS011;62036;48.128;16.458;2022-11-18T08:39:04;24.30;;;9.20;;
73729;SDS011;62036;48.128;16.458;2022-11-18T08:41:34;24.90;;;9.18;;
73729;SDS011;62036;48.128;16.458;2022-11-18T08:44:01;23.73;;;9.40;;
73729;SDS011;62036;48.128;16.458;2022-11-18T08:46:27;26.05;;;9.15;;
73729;SDS011;62036;48.128;16.458;2022-11-18T08:48:54;21.30;;;9.13;;
73729;SDS011;62036;48.128;16.458;2022-11-18T08:51:20;25.98;;;10.27;;
73729;SDS011;62036;48.128;16.458;2022-11-18T08:53:46;26.25;;;10.23;;
73729;SDS011;62036;48.128;16.458;2022-11-18T08:56:13;22.75;;;9.50;;
73729;SDS011;62036;48.128;16.458;2022-11-18T08:58:40;26.70;;;10.07;;
73729;SDS011;62036;48.128;16.458;2022-11-18T09:01:06;22.10;;;10.18;;
73729;SDS011;62036;48.128;16.458;2022-11-18T09:03:32;25.38;;;10.20;;
73729;SDS011;62036;48.128;16.458;2022-11-18T09:06:11;20.80;;;9.32;;
73729;SDS011;62036;48.128;16.458;2022-11-18T09:08:38;25.50;;;9.35;;
73729;SDS011;62036;48.128;16.458;2022-11-18T09:11:06;22.95;;;9.60;;
73729;SDS011;62036;48.128;16.458;2022-11-18T09:13:32;24.88;;;10.55;;
73729;SDS011;62036;48.128;16.458;2022-11-18T09:15:59;21.70;;;9.35;;
73729;SDS011;62036;48.128;16.458;2022-11-18T09:18:25;24.23;;;10.07;;
73729;SDS011;62036;48.128;16.458;2022-11-18T09:20:55;21.35;;;8.93;;
73729;SDS011;62036;48.128;16.458;2022-11-18T09:23:21;21.17;;;9.35;;
73729;SDS011;62036;48.128;16.458;2022-11-18T09:25:48;24.48;;;9.55;;
73729;SDS011;62036;48.128;16.458;2022-11-18T09:28:14;27.15;;;10.23;;
73729;SDS011;62036;48.128;16.458;2022-11-18T09:30:40;27.95;;;10.23;;
73729;SDS011;62036;48.128;16.458;2022-11-18T09:33:06;25.55;;;9.35;;
73729;SDS011;62036;48.128;16.458;2022-11-18T09:35:32;26.98;;;9.20;;
73729;SDS011;62036;48.128;16.458;2022-11-18T09:37:58;28.58;;;9.63;;
73729;SDS011;62036;48.128;16.458;2022-11-18T09:40:24;27.08;;;9.40;;
73729;SDS011;62036;48.128;16.458;2022-11-18T09:43:00;27.17;;;9.77;;
73729;SDS011;62036;48.128;16.458;2022-11-18T09:45:28;26.88;;;11.10;;
73729;SDS011;62036;48.128;16.458;2022-11-18T09:47:58;29.75;;;10.40;;
73729;SDS011;62036;48.128;16.458;2022-11-18T09:50:25;25.27;;;10.73;;
73729;SDS011;62036;48.128;16.458;2022-11-18T09:55:17;26.42;;;10.27;;
73729;SDS011;62036;48.128;16.458;2022-11-18T09:57:45;24.77;;;10.48;;
73729;SDS011;62036;48.128;16.458;2022-11-18T10:00:18;23.50;;;9.15;;
73729;SDS011;62036;48.128;16.458;2022-11-18T10:05:20;20.73;;;8.55;;
73729;SDS011;62036;48.128;16.458;2022-11-18T10:10:24;25.92;;;9.55;;
73729;SDS011;62036;48.128;16.458;2022-11-18T10:12:56;25.13;;;8.70;;
73729;SDS011;62036;48.128;16.458;2022-11-18T10:15:34;19.38;;;7.85;;
73729;SDS011;62036;48.128;16.458;2022-11-18T10:23:14;21.50;;;8.15;;
73729;SDS011;62036;48.128;16.458;2022-11-18T10:25:41;22.23;;;8.75;;
73729;SDS011;62036;48.128;16.458;2022-11-18T10:28:13;26.90;;;9.10;;
73729;SDS011;62036;48.128;16.458;2022-11-18T10:30:40;22.67;;;9.38;;
73729;SDS011;62036;48.128;16.458;2022-11-18T10:33:17;23.38;;;8.60;;
73729;SDS011;62036;48.128;16.458;2022-11-18T10:35:43;18.17;;;8.40;;
73729;SDS011;62036;48.128;16.458;2022-11-18T10:40:43;16.27;;;7.13;;
73729;SDS011;62036;48.128;16.458;2022-11-18T10:43:10;18.10;;;7.15;;
73729;SDS011;62036;48.128;16.458;2022-11-18T10:45:37;18.98;;;7.47;;
73729;SDS011;62036;48.128;16.458;2022-11-18T10:48:07;15.68;;;6.85;;
73729;SDS011;62036;48.128;16.458;2022-11-18T10:50:35;15.80;;;6.53;;
73729;SDS011;62036;48.128;16.458;2022-11-18T10:53:02;18.10;;;7.30;;
73729;SDS011;62036;48.128;16.458;2022-11-18T10:55:28;14.85;;;6.93;;
73729;SDS011;62036;48.128;16.458;2022-11-18T10:57:56;15.93;;;6.35;;
73729;SDS011;62036;48.128;16.458;2022-11-18T11:00:32;15.43;;;6.30;;
73729;SDS011;62036;48.128;16.458;2022-11-18T11:02:59;15.40;;;6.20;;
73729;SDS011;62036;48.128;16.458;2022-11-18T11:05:25;14.73;;;6.53;;
73729;SDS011;62036;48.128;16.458;2022-11-18T11:08:02;15.90;;;6.63;;
73729;SDS011;62036;48.128;16.458;2022-11-18T11:10:28;15.23;;;6.15;;
73729;SDS011;62036;48.128;16.458;2022-11-18T11:13:00;15.25;;;6.47;;
73729;SDS011;62036;48.128;16.458;2022-11-18T11:17:59;17.67;;;6.68;;
73729;SDS011;62036;48.128;16.458;2022-11-18T11:20:45;16.58;;;7.03;;
73729;SDS011;62036;48.128;16.458;2022-11-18T11:23:12;19.15;;;7.45;;
73729;SDS011;62036;48.128;16.458;2022-11-18T11:25:43;16.38;;;7.07;;
73729;SDS011;62036;48.128;16.458;2022-11-18T11:33:35;14.85;;;7.40;;
73729;SDS011;62036;48.128;16.458;2022-11-18T11:41:22;13.05;;;5.38;;
73729;SDS011;62036;48.128;16.458;2022-11-18T11:49:48;12.35;;;5.03;;
73729;SDS011;62036;48.128;16.458;2022-11-18T11:52:20;13.70;;;5.63;;
73729;SDS011;62036;48.128;16.458;2022-11-18T12:00:16;10.70;;;5.05;;
73729;SDS011;62036;48.128;16.458;2022-11-18T12:02:56;12.73;;;5.57;;
73729;SDS011;62036;48.128;16.458;2022-11-18T12:05:37;12.45;;;5.90;;
73729;SDS011;62036;48.128;16.458;2022-11-18T12:08:26;10.63;;;4.50;;
73729;SDS011;62036;48.128;16.458;2022-11-18T12:11:12;14.65;;;5.28;;
73729;SDS011;62036;48.128;16.458;2022-11-18T12:19:36;9.80;;;5.05;;
73729;SDS011;62036;48.128;16.458;2022-11-18T12:22:03;10.07;;;5.15;;
73729;SDS011;62036;48.128;16.458;2022-11-18T12:24:31;14.23;;;5.90;;
73729;SDS011;62036;48.128;16.458;2022-11-18T12:27:04;10.18;;;5.13;;
73729;SDS011;62036;48.128;16.458;2022-11-18T12:34:41;11.23;;;5.50;;
73729;SDS011;62036;48.128;16.458;2022-11-18T12:39:46;10.75;;;5.50;;
73729;SDS011;62036;48.128;16.458;2022-11-18T12:48:01;11.63;;;4.75;;
73729;SDS011;62036;48.128;16.458;2022-11-18T12:50:47;8.50;;;4.72;;
73729;SDS011;62036;48.128;16.458;2022-11-18T12:53:27;12.55;;;5.22;;
73729;SDS011;62036;48.128;16.458;2022-11-18T12:55:55;11.43;;;5.10;;
73729;SDS011;62036;48.128;16.458;2022-11-18T12:58:23;12.18;;;5.35;;
73729;SDS011;62036;48.128;16.458;2022-11-18T13:00:49;13.25;;;5.32;;
73729;SDS011;62036;48.128;16.458;2022-11-18T13:03:21;11.50;;;5.60;;
73729;SDS011;62036;48.128;16.458;2022-11-18T13:05:48;12.95;;;6.10;;
73729;SDS011;62036;48.128;16.458;2022-11-18T13:08:15;11.15;;;5.18;;
73729;SDS011;62036;48.128;16.458;2022-11-18T13:13:18;12.45;;;4.43;;
73729;SDS011;62036;48.128;16.458;2022-11-18T13:15:46;13.05;;;5.65;;
73729;SDS011;62036;48.128;16.458;2022-11-18T13:18:30;12.38;;;5.18;;
73729;SDS011;62036;48.128;16.458;2022-11-18T13:21:00;12.82;;;5.43;;
73729;SDS011;62036;48.128;16.458;2022-11-18T13:23:46;12.93;;;5.55;;
73729;SDS011;62036;48.128;16.458;2022-11-18T13:33:42;15.07;;;5.75;;
73729;SDS011;62036;48.128;16.458;2022-11-18T13:36:18;17.88;;;6.60;;
73729;SDS011;62036;48.128;16.458;2022-11-18T13:38:57;17.08;;;6.47;;
73729;SDS011;62036;48.128;16.458;2022-11-18T13:41:23;15.13;;;6.00;;
73729;SDS011;62036;48.128;16.458;2022-11-18T13:44:08;14.43;;;5.22;;
73729;SDS011;62036;48.128;16.458;2022-11-18T13:46:35;15.60;;;5.70;;
73729;SDS011;62036;48.128;16.458;2022-11-18T13:49:01;13.80;;;5.95;;
73729;SDS011;62036;48.128;16.458;2022-11-18T13:51:27;14.57;;;5.40;;
73729;SDS011;62036;48.128;16.458;2022-11-18T13:53:54;15.55;;;6.25;;
73729;SDS011;62036;48.128;16.458;2022-11-18T13:56:22;13.70;;;5.57;;
73729;SDS011;62036;48.128;16.458;2022-11-18T14:01:16;12.27;;;5.13;;
73729;SDS011;62036;48.128;16.458;2022-11-18T14:03:48;12.52;;;4.78;;
73729;SDS011;62036;48.128;16.458;2022-11-18T14:06:28;13.13;;;5.45;;
73729;SDS011;62036;48.128;16.458;2022-11-18T14:11:41;11.93;;;5.00;;
73729;SDS011;62036;48.128;16.458;2022-11-18T14:14:08;12.57;;;4.70;;
73729;SDS011;62036;48.128;16.458;2022-11-18T14:16:38;12.40;;;5.38;;
73729;SDS011;62036;48.128;16.458;2022-11-18T14:19:05;11.48;;;4.68;;
73729;SDS011;62036;48.128;16.458;2022-11-18T14:21:32;13.55;;;5.60;;
73729;SDS011;62036;48.128;16.458;2022-11-18T14:23:59;11.27;;;4.47;;
73729;SDS011;62036;48.128;16.458;2022-11-18T14:26:32;7.20;;;3.47;;
73729;SDS011;62036;48.128;16.458;2022-11-18T14:28:59;8.45;;;4.63;;
73729;SDS011;62036;48.128;16.458;2022-11-18T14:31:31;10.18;;;4.47;;
73729;SDS011;62036;48.128;16.458;2022-11-18T14:34:05;10.02;;;4.03;;
73729;SDS011;62036;48.128;16.458;2022-11-18T14:36:31;8.88;;;3.92;;
73729;SDS011;62036;48.128;16.458;2022-11-18T14:38:57;10.30;;;4.50;;
73729;SDS011;62036;48.128;16.458;2022-11-18T14:41:23;10.63;;;3.88;;
73729;SDS011;62036;48.128;16.458;2022-11-18T14:44:07;7.55;;;2.95;;
73729;SDS011;62036;48.128;16.458;2022-11-18T14:46:34;9.68;;;3.15;;
73729;SDS011;62036;48.128;16.458;2022-11-18T14:49:02;3.42;;;2.35;;
73729;SDS011;62036;48.128;16.458;2022-11-18T14:51:28;5.45;;;2.40;;
73729;SDS011;62036;48.128;16.458;2022-11-18T14:53:54;3.85;;;2.05;;
73729;SDS011;62036;48.128;16.458;2022-11-18T14:56:30;2.97;;;2.05;;
73729;SDS011;62036;48.128;16.458;2022-11-18T14:58:57;3.47;;;2.03;;
73729;SDS011;62036;48.128;16.458;2022-11-18T15:01:23;2.40;;;2.00;;
73729;SDS011;62036;48.128;16.458;2022-11-18T15:03:49;4.18;;;2.42;;
73729;SDS011;62036;48.128;16.458;2022-11-18T15:06:16;5.32;;;3.00;;
73729;SDS011;62036;48.128;16.458;2022-11-18T15:08:44;6.03;;;3.25;;
73729;SDS011;62036;48.128;16.458;2022-11-18T15:11:10;5.85;;;2.85;;
73729;SDS011;62036;48.128;16.458;2022-11-18T15:13:37;6.55;;;3.40;;
73729;SDS011;62036;48.128;16.458;2022-11-18T15:16:19;4.70;;;3.03;;
73729;SDS011;62036;48.128;16.458;2022-11-18T15:18:47;7.95;;;3.45;;
73729;SDS011;62036;48.128;16.458;2022-11-18T15:21:13;6.00;;;3.35;;
73729;SDS011;62036;48.128;16.458;2022-11-18T15:23:39;6.57;;;3.42;;
73729;SDS011;62036;48.128;16.458;2022-11-18T15:26:16;6.90;;;4.32;;
73729;SDS011;62036;48.128;16.458;2022-11-18T15:28:43;10.80;;;4.93;;
73729;SDS011;62036;48.128;16.458;2022-11-18T15:31:09;8.80;;;4.95;;
73729;SDS011;62036;48.128;16.458;2022-11-18T15:33:35;6.78;;;3.95;;
73729;SDS011;62036;48.128;16.458;2022-11-18T15:36:01;7.82;;;4.22;;
73729;SDS011;62036;48.128;16.458;2022-11-18T15:38:27;8.68;;;4.97;;
73729;SDS011;62036;48.128;16.458;2022-11-18T15:40:53;10.65;;;5.75;;
73729;SDS011;62036;48.128;16.458;2022-11-18T15:43:19;13.38;;;6.18;;
73729;SDS011;62036;48.128;16.458;2022-11-18T15:45:45;12.52;;;6.93;;
73729;SDS011;62036;48.128;16.458;2022-11-18T15:48:11;13.25;;;7.35;;
73729;SDS011;62036;48.128;16.458;2022-11-18T15:50:37;12.27;;;6.30;;
73729;SDS011;62036;48.128;16.458;2022-11-18T15:53:03;11.57;;;6.03;;
73729;SDS011;62036;48.128;16.458;2022-11-18T15:55:29;10.02;;;6.05;;
73729;SDS011;62036;48.128;16.458;2022-11-18T15:57:55;9.48;;;5.80;;
73729;SDS011;62036;48.128;16.458;2022-11-18T16:00:21;11.43;;;6.07;;
73729;SDS011;62036;48.128;16.458;2022-11-18T16:02:47;8.80;;;5.38;;
73729;SDS011;62036;48.128;16.458;2022-11-18T16:05:13;15.27;;;7.00;;
73729;SDS011;62036;48.128;16.458;2022-11-18T16:07:39;13.82;;;6.75;;
73729;SDS011;62036;48.128;16.458;2022-11-18T16:10:05;8.70;;;5.63;;
73729;SDS011;62036;48.128;16.458;2022-11-18T16:12:50;13.32;;;6.20;;
73729;SDS011;62036;48.128;16.458;2022-11-18T16:15:16;11.52;;;5.97;;